sensor_id;sensor_type;location;lat;lon;timestamp;noise_LAeq;noise_LA_min;noise_LA_max;noise_LA01;noise_LA95
59284;Laerm;45056;47.602;9.886;2023-09-12T00:01:46;42.21;31.68;56.11;;
59284;Laerm;45056;47.602;9.886;2023-09-12T00:04:14;37.58;32.93;45.01;;
59284;Laerm;45056;47.602;9.886;2023-09-12T00:06:42;37.84;32.93;41.61;;
59284;Laerm;45056;47.602;9.886;2023-09-12T00:09:10;37.79;32.93;41.06;;
59284;Laerm;45056;47.602;9.886;2023-09-12T00:11:39;37.70;32.93;41.14;;
59284;Laerm;45056;47.602;9.886;2023-09-12T00:14:09;37.91;32.93;42.98;;
59284;Laerm;45056;47.602;9.886;2023-09-12T00:16:37;39.37;32.35;54.25;;
59284;Laerm;45056;47.602;9.886;2023-09-12T00:19:06;38.50;32.93;43.86;;
59284;Laerm;45056;47.602;9.886;2023-09-12T00:21:34;38.09;33.44;47.67;;
59284;Laerm;45056;47.602;9.886;2023-09-12T00:24:03;38.14;33.44;41.06;;
59284;Laerm;45056;47.602;9.886;2023-09-12T00:26:31;39.16;32.93;50.49;;
59284;Laerm;45056;47.602;9.886;2023-09-12T00:28:59;37.96;31.68;41.38;;
59284;Laerm;45056;47.602;9.886;2023-09-12T00:31:27;41.10;34.31;55.05;;
59284;Laerm;45056;47.602;9.886;2023-09-12T00:33:55;37.93;32.93;42.35;;
59284;Laerm;45056;47.602;9.886;2023-09-12T00:36:25;39.44;33.44;52.49;;
59284;Laerm;45056;47.602;9.886;2023-09-12T00:38:53;37.89;33.44;40.98;;
59284;Laerm;45056;47.602;9.886;2023-09-12T00:41:21;38.56;33.44;41.96;;
59284;Laerm;45056;47.602;9.886;2023-09-12T00:43:49;38.55;34.31;43.77;;
59284;Laerm;45056;47.602;9.886;2023-09-12T00:46:21;40.56;30.89;55.83;;
59284;Laerm;45056;47.602;9.886;2023-09-12T00:48:53;37.65;32.35;40.43;;
59284;Laerm;45056;47.602;9.886;2023-09-12T00:51:26;38.06;32.93;41.68;;
59284;Laerm;45056;47.602;9.886;2023-09-12T00:53:55;38.05;32.93;42.16;;
59284;Laerm;45056;47.602;9.886;2023-09-12T00:56:24;37.68;31.68;41.30;;
59284;Laerm;45056;47.602;9.886;2023-09-12T00:58:53;37.52;30.54;40.23;;
59284;Laerm;45056;47.602;9.886;2023-09-12T01:01:22;43.26;32.93;55.24;;
59284;Laerm;45056;47.602;9.886;2023-09-12T01:03:51;40.23;32.93;53.75;;
59284;Laerm;45056;47.602;9.886;2023-09-12T01:06:25;37.99;32.35;41.61;;
59284;Laerm;45056;47.602;9.886;2023-09-12T01:08:55;38.92;32.93;48.76;;
59284;Laerm;45056;47.602;9.886;2023-09-12T01:11:24;39.25;33.90;50.43;;
59284;Laerm;45056;47.602;9.886;2023-09-12T01:13:52;37.84;32.35;41.30;;
59284;Laerm;45056;47.602;9.886;2023-09-12T01:16:20;39.66;33.90;54.88;;
59284;Laerm;45056;47.602;9.886;2023-09-12T01:18:49;38.07;32.35;42.22;;
59284;Laerm;45056;47.602;9.886;2023-09-12T01:22:03;38.97;32.93;44.11;;
59284;Laerm;45056;47.602;9.886;2023-09-12T01:25:26;37.96;32.35;44.11;;
59284;Laerm;45056;47.602;9.886;2023-09-12T01:28:08;39.13;33.44;43.58;;
59284;Laerm;45056;47.602;9.886;2023-09-12T01:30:42;40.67;33.44;54.31;;
59284;Laerm;45056;47.602;9.886;2023-09-12T01:33:11;38.67;34.31;47.06;;
59284;Laerm;45056;47.602;9.886;2023-09-12T01:35:39;41.71;33.44;57.28;;
59284;Laerm;45056;47.602;9.886;2023-09-12T01:38:07;39.50;32.35;47.02;;
59284;Laerm;45056;47.602;9.886;2023-09-12T01:40:44;39.55;32.35;50.19;;
59284;Laerm;45056;47.602;9.886;2023-09-12T01:43:19;39.15;33.44;45.72;;
59284;Laerm;45056;47.602;9.886;2023-09-12T01:45:53;41.43;33.44;55.38;;
59284;Laerm;45056;47.602;9.886;2023-09-12T01:48:26;38.32;32.35;57.20;;
59284;Laerm;45056;47.602;9.886;2023-09-12T01:51:00;37.99;32.58;40.62;;
59284;Laerm;45056;47.602;9.886;2023-09-12T01:53:32;37.78;32.35;40.80;;
59284;Laerm;45056;47.602;9.886;2023-09-12T01:56:00;39.01;32.93;48.49;;
59284;Laerm;45056;47.602;9.886;2023-09-12T01:58:31;37.57;32.35;43.39;;
59284;Laerm;45056;47.602;9.886;2023-09-12T02:00:59;45.19;32.35;56.76;;
59284;Laerm;45056;47.602;9.886;2023-09-12T02:03:27;41.59;34.31;58.13;;
59284;Laerm;45056;47.602;9.886;2023-09-12T02:05:55;38.95;32.93;47.76;;
59284;Laerm;45056;47.602;9.886;2023-09-12T02:08:23;38.57;33.90;43.14;;
59284;Laerm;45056;47.602;9.886;2023-09-12T02:10:51;38.75;32.93;42.59;;
59284;Laerm;45056;47.602;9.886;2023-09-12T02:13:19;39.74;34.69;50.38;;
59284;Laerm;45056;47.602;9.886;2023-09-12T02:15:49;42.28;34.31;55.83;;
59284;Laerm;45056;47.602;9.886;2023-09-12T02:18:17;39.27;33.90;48.07;;
59284;Laerm;45056;47.602;9.886;2023-09-12T02:20:45;40.51;34.31;52.53;;
59284;Laerm;45056;47.602;9.886;2023-09-12T02:23:15;41.45;33.90;53.19;;
59284;Laerm;45056;47.602;9.886;2023-09-12T02:25:43;39.77;33.44;53.82;;
59284;Laerm;45056;47.602;9.886;2023-09-12T02:28:11;38.08;33.44;41.68;;
59284;Laerm;45056;47.602;9.886;2023-09-12T02:30:39;40.96;33.44;55.60;;
59284;Laerm;45056;47.602;9.886;2023-09-12T02:33:09;38.25;32.93;44.23;;
59284;Laerm;45056;47.602;9.886;2023-09-12T02:35:37;42.90;33.90;61.74;;
59284;Laerm;45056;47.602;9.886;2023-09-12T02:38:05;40.20;35.66;45.39;;
59284;Laerm;45056;47.602;9.886;2023-09-12T02:40:33;42.61;35.94;54.01;;
59284;Laerm;45056;47.602;9.886;2023-09-12T02:43:01;44.46;37.12;57.95;;
59284;Laerm;45056;47.602;9.886;2023-09-12T02:45:29;41.56;35.36;55.67;;
59284;Laerm;45056;47.602;9.886;2023-09-12T02:47:57;44.76;34.31;63.49;;
59284;Laerm;45056;47.602;9.886;2023-09-12T02:50:27;41.60;36.69;52.58;;
59284;Laerm;45056;47.602;9.886;2023-09-12T02:52:55;41.12;35.04;51.32;;
59284;Laerm;45056;47.602;9.886;2023-09-12T02:55:23;41.66;34.69;53.71;;
59284;Laerm;45056;47.602;9.886;2023-09-12T02:57:51;42.01;37.52;46.93;;
59284;Laerm;45056;47.602;9.886;2023-09-12T03:00:19;46.10;35.36;58.93;;
59284;Laerm;45056;47.602;9.886;2023-09-12T03:02:48;42.59;35.04;57.47;;
59284;Laerm;45056;47.602;9.886;2023-09-12T03:05:16;41.84;35.94;54.79;;
59284;Laerm;45056;47.602;9.886;2023-09-12T03:07:45;43.44;34.69;57.09;;
59284;Laerm;45056;47.602;9.886;2023-09-12T03:10:13;44.44;38.52;53.31;;
59284;Laerm;45056;47.602;9.886;2023-09-12T03:12:41;47.11;37.70;62.45;;
59284;Laerm;45056;47.602;9.886;2023-09-12T03:15:10;43.65;35.66;57.06;;
59284;Laerm;45056;47.602;9.886;2023-09-12T03:17:38;46.03;36.91;58.39;;
59284;Laerm;45056;47.602;9.886;2023-09-12T03:20:07;42.14;36.69;53.86;;
59284;Laerm;45056;47.602;9.886;2023-09-12T03:22:35;44.63;39.34;56.65;;
59284;Laerm;45056;47.602;9.886;2023-09-12T03:25:06;45.89;38.37;60.79;;
59284;Laerm;45056;47.602;9.886;2023-09-12T03:27:35;42.46;37.12;56.73;;
59284;Laerm;45056;47.602;9.886;2023-09-12T03:30:04;45.58;37.52;57.16;;
59284;Laerm;45056;47.602;9.886;2023-09-12T03:32:33;42.68;38.05;56.09;;
59284;Laerm;45056;47.602;9.886;2023-09-12T03:35:01;44.49;38.05;55.21;;
59284;Laerm;45056;47.602;9.886;2023-09-12T03:37:29;47.96;37.88;61.53;;
59284;Laerm;45056;47.602;9.886;2023-09-12T03:39:57;45.35;39.08;54.75;;
59284;Laerm;45056;47.602;9.886;2023-09-12T03:42:26;46.97;38.21;60.64;;
59284;Laerm;45056;47.602;9.886;2023-09-12T03:44:54;45.37;37.70;56.14;;
59284;Laerm;45056;47.602;9.886;2023-09-12T03:47:22;44.91;39.21;56.91;;
59284;Laerm;45056;47.602;9.886;2023-09-12T03:49:50;45.09;39.34;55.58;;
59284;Laerm;45056;47.602;9.886;2023-09-12T03:52:18;45.17;39.92;54.94;;
59284;Laerm;45056;47.602;9.886;2023-09-12T03:54:46;45.44;39.81;58.31;;
59284;Laerm;45056;47.602;9.886;2023-09-12T03:57:14;45.16;39.58;60.44;;
59284;Laerm;45056;47.602;9.886;2023-09-12T03:59:43;44.55;39.46;55.02;;
59284;Laerm;45056;47.602;9.886;2023-09-12T04:02:13;47.59;39.08;58.99;;
59284;Laerm;45056;47.602;9.886;2023-09-12T04:04:41;56.23;40.80;69.53;;
59284;Laerm;45056;47.602;9.886;2023-09-12T04:07:09;45.39;38.81;59.62;;
59284;Laerm;45056;47.602;9.886;2023-09-12T04:09:37;43.23;38.37;54.92;;
59284;Laerm;45056;47.602;9.886;2023-09-12T04:12:07;45.06;39.46;59.30;;
59284;Laerm;45056;47.602;9.886;2023-09-12T04:14:35;44.10;37.12;55.29;;
59284;Laerm;45056;47.602;9.886;2023-09-12T04:17:05;43.59;38.67;56.44;;
59284;Laerm;45056;47.602;9.886;2023-09-12T04:19:33;44.12;38.05;56.80;;
59284;Laerm;45056;47.602;9.886;2023-09-12T04:22:01;43.17;38.81;54.12;;
59284;Laerm;45056;47.602;9.886;2023-09-12T04:24:31;44.57;38.37;55.52;;
59284;Laerm;45056;47.602;9.886;2023-09-12T04:26:59;46.73;40.23;58.90;;
59284;Laerm;45056;47.602;9.886;2023-09-12T04:29:27;46.03;39.92;56.59;;
59284;Laerm;45056;47.602;9.886;2023-09-12T04:31:55;46.41;39.81;59.39;;
59284;Laerm;45056;47.602;9.886;2023-09-12T04:34:27;46.71;38.37;59.23;;
59284;Laerm;45056;47.602;9.886;2023-09-12T04:36:55;46.16;40.53;55.53;;
59284;Laerm;45056;47.602;9.886;2023-09-12T04:39:23;46.23;39.21;61.42;;
59284;Laerm;45056;47.602;9.886;2023-09-12T04:41:51;45.98;40.13;56.94;;
59284;Laerm;45056;47.602;9.886;2023-09-12T04:44:19;45.95;39.81;59.58;;
59284;Laerm;45056;47.602;9.886;2023-09-12T04:46:47;47.56;40.33;61.28;;
59284;Laerm;45056;47.602;9.886;2023-09-12T04:49:15;50.21;40.03;64.55;;
59284;Laerm;45056;47.602;9.886;2023-09-12T04:51:44;48.43;40.62;61.63;;
59284;Laerm;45056;47.602;9.886;2023-09-12T04:54:12;44.79;39.34;54.85;;
59284;Laerm;45056;47.602;9.886;2023-09-12T04:56:40;45.63;40.13;57.01;;
59284;Laerm;45056;47.602;9.886;2023-09-12T04:59:08;49.58;40.71;61.43;;
59284;Laerm;45056;47.602;9.886;2023-09-12T05:01:36;49.08;40.80;60.36;;
59284;Laerm;45056;47.602;9.886;2023-09-12T05:04:04;45.39;39.70;55.89;;
59284;Laerm;45056;47.602;9.886;2023-09-12T05:06:32;48.79;41.61;59.00;;
59284;Laerm;45056;47.602;9.886;2023-09-12T05:09:02;48.40;41.94;60.78;;
59284;Laerm;45056;47.602;9.886;2023-09-12T05:11:32;48.83;40.23;63.84;;
59284;Laerm;45056;47.602;9.886;2023-09-12T05:14:00;49.94;41.46;63.45;;
59284;Laerm;45056;47.602;9.886;2023-09-12T05:16:30;48.76;41.96;58.07;;
59284;Laerm;45056;47.602;9.886;2023-09-12T05:18:58;47.93;41.82;55.93;;
59284;Laerm;45056;47.602;9.886;2023-09-12T05:21:26;47.36;40.96;60.72;;
59284;Laerm;45056;47.602;9.886;2023-09-12T05:23:54;48.59;41.53;57.09;;
59284;Laerm;45056;47.602;9.886;2023-09-12T05:26:23;47.77;41.96;56.04;;
59284;Laerm;45056;47.602;9.886;2023-09-12T05:28:51;47.93;41.22;58.91;;
59284;Laerm;45056;47.602;9.886;2023-09-12T05:31:22;47.52;41.75;56.02;;
59284;Laerm;45056;47.602;9.886;2023-09-12T05:33:52;49.68;42.47;61.81;;
59284;Laerm;45056;47.602;9.886;2023-09-12T05:36:20;49.05;42.29;58.45;;
59284;Laerm;45056;47.602;9.886;2023-09-12T05:38:48;49.38;41.30;62.52;;
59284;Laerm;45056;47.602;9.886;2023-09-12T05:41:16;48.82;42.09;57.16;;
59284;Laerm;45056;47.602;9.886;2023-09-12T05:43:45;47.89;40.89;55.61;;
59284;Laerm;45056;47.602;9.886;2023-09-12T05:46:13;49.59;42.29;59.38;;
59284;Laerm;45056;47.602;9.886;2023-09-12T05:48:41;47.90;41.46;56.73;;
59284;Laerm;45056;47.602;9.886;2023-09-12T05:51:09;50.51;42.09;60.84;;
59284;Laerm;45056;47.602;9.886;2023-09-12T05:53:38;49.36;42.76;56.62;;
59284;Laerm;45056;47.602;9.886;2023-09-12T05:56:06;48.06;41.53;54.68;;
59284;Laerm;45056;47.602;9.886;2023-09-12T05:58:34;49.54;42.03;61.32;;
59284;Laerm;45056;47.602;9.886;2023-09-12T06:01:04;51.23;40.80;62.95;;
59284;Laerm;45056;47.602;9.886;2023-09-12T06:03:32;53.09;42.82;69.02;;
59284;Laerm;45056;47.602;9.886;2023-09-12T06:06:00;54.19;42.16;70.46;;
59284;Laerm;45056;47.602;9.886;2023-09-12T06:08:28;48.22;42.03;71.88;;
59284;Laerm;45056;47.602;9.886;2023-09-12T06:10:56;54.97;41.61;69.01;;
59284;Laerm;45056;47.602;9.886;2023-09-12T06:13:24;46.94;41.38;54.89;;
59284;Laerm;45056;47.602;9.886;2023-09-12T06:15:52;52.12;41.06;66.80;;
59284;Laerm;45056;47.602;9.886;2023-09-12T06:18:21;47.46;40.89;61.14;;
59284;Laerm;45056;47.602;9.886;2023-09-12T06:20:50;47.03;41.30;58.15;;
59284;Laerm;45056;47.602;9.886;2023-09-12T06:23:19;47.39;40.43;58.05;;
59284;Laerm;45056;47.602;9.886;2023-09-12T06:25:47;48.11;43.34;56.24;;
59284;Laerm;45056;47.602;9.886;2023-09-12T06:28:25;47.90;42.93;58.28;;
59284;Laerm;45056;47.602;9.886;2023-09-12T06:30:53;49.29;42.35;57.17;;
59284;Laerm;45056;47.602;9.886;2023-09-12T06:33:24;49.86;40.43;65.18;;
59284;Laerm;45056;47.602;9.886;2023-09-12T06:35:52;48.16;41.22;58.68;;
59284;Laerm;45056;47.602;9.886;2023-09-12T06:38:23;52.51;41.75;64.29;;
59284;Laerm;45056;47.602;9.886;2023-09-12T06:40:51;50.10;40.62;59.87;;
59284;Laerm;45056;47.602;9.886;2023-09-12T06:43:19;48.44;41.82;59.77;;
59284;Laerm;45056;47.602;9.886;2023-09-12T06:45:47;47.57;41.06;55.77;;
59284;Laerm;45056;47.602;9.886;2023-09-12T06:48:15;45.87;39.34;56.30;;
59284;Laerm;45056;47.602;9.886;2023-09-12T06:50:45;46.74;41.14;55.91;;
59284;Laerm;45056;47.602;9.886;2023-09-12T06:53:13;45.88;40.80;54.63;;
59284;Laerm;45056;47.602;9.886;2023-09-12T06:55:41;46.59;40.98;54.79;;
59284;Laerm;45056;47.602;9.886;2023-09-12T06:58:09;47.39;41.22;56.51;;
59284;Laerm;45056;47.602;9.886;2023-09-12T07:00:37;49.34;40.33;64.25;;
59284;Laerm;45056;47.602;9.886;2023-09-12T07:03:06;46.48;40.98;56.17;;
59284;Laerm;45056;47.602;9.886;2023-09-12T07:05:36;48.40;41.68;63.62;;
59284;Laerm;45056;47.602;9.886;2023-09-12T07:08:07;45.63;40.03;53.93;;
59284;Laerm;45056;47.602;9.886;2023-09-12T07:10:35;46.85;41.26;59.10;;
59284;Laerm;45056;47.602;9.886;2023-09-12T07:13:03;46.15;41.06;55.40;;
59284;Laerm;45056;47.602;9.886;2023-09-12T07:15:31;46.61;40.33;56.58;;
59284;Laerm;45056;47.602;9.886;2023-09-12T07:17:59;47.77;42.29;62.84;;
59284;Laerm;45056;47.602;9.886;2023-09-12T07:20:27;47.53;40.62;56.91;;
59284;Laerm;45056;47.602;9.886;2023-09-12T07:22:55;46.73;41.30;55.92;;
59284;Laerm;45056;47.602;9.886;2023-09-12T07:25:25;52.39;42.41;68.08;;
59284;Laerm;45056;47.602;9.886;2023-09-12T07:27:53;46.19;40.62;55.15;;
59284;Laerm;45056;47.602;9.886;2023-09-12T07:30:21;46.06;40.80;54.11;;
59284;Laerm;45056;47.602;9.886;2023-09-12T07:32:49;46.26;41.53;57.47;;
59284;Laerm;45056;47.602;9.886;2023-09-12T07:35:18;47.31;41.53;61.18;;
59284;Laerm;45056;47.602;9.886;2023-09-12T07:37:47;45.68;40.71;57.20;;
59284;Laerm;45056;47.602;9.886;2023-09-12T07:40:15;48.27;40.62;63.18;;
59284;Laerm;45056;47.602;9.886;2023-09-12T07:42:44;48.19;40.89;61.85;;
59284;Laerm;45056;47.602;9.886;2023-09-12T07:45:12;48.71;41.22;62.60;;
59284;Laerm;45056;47.602;9.886;2023-09-12T07:47:41;45.84;39.70;61.27;;
59284;Laerm;45056;47.602;9.886;2023-09-12T07:50:09;44.75;40.33;55.68;;
59284;Laerm;45056;47.602;9.886;2023-09-12T07:52:37;48.72;40.53;61.90;;
59284;Laerm;45056;47.602;9.886;2023-09-12T07:55:07;51.03;40.62;68.34;;
59284;Laerm;45056;47.602;9.886;2023-09-12T07:57:35;49.67;40.33;75.13;;
59284;Laerm;45056;47.602;9.886;2023-09-12T08:00:07;46.83;39.34;55.94;;
59284;Laerm;45056;47.602;9.886;2023-09-12T08:02:37;49.94;41.38;60.07;;
59284;Laerm;45056;47.602;9.886;2023-09-12T08:05:06;47.15;41.22;58.31;;
59284;Laerm;45056;47.602;9.886;2023-09-12T08:07:35;50.58;41.38;65.81;;
59284;Laerm;45056;47.602;9.886;2023-09-12T08:10:05;47.57;40.98;60.69;;
59284;Laerm;45056;47.602;9.886;2023-09-12T08:12:33;46.99;39.08;58.23;;
59284;Laerm;45056;47.602;9.886;2023-09-12T08:15:08;48.77;41.06;61.52;;
59284;Laerm;45056;47.602;9.886;2023-09-12T08:17:36;47.76;39.92;59.16;;
59284;Laerm;45056;47.602;9.886;2023-09-12T08:20:07;47.27;41.14;56.66;;
59284;Laerm;45056;47.602;9.886;2023-09-12T08:22:36;47.58;41.06;59.75;;
59284;Laerm;45056;47.602;9.886;2023-09-12T08:25:05;45.05;39.21;55.11;;
59284;Laerm;45056;47.602;9.886;2023-09-12T08:27:34;45.76;40.53;52.86;;
59284;Laerm;45056;47.602;9.886;2023-09-12T08:30:02;46.01;40.89;56.83;;
59284;Laerm;45056;47.602;9.886;2023-09-12T08:32:32;50.38;40.23;63.78;;
59284;Laerm;45056;47.602;9.886;2023-09-12T08:35:00;46.92;40.62;58.55;;
59284;Laerm;45056;47.602;9.886;2023-09-12T08:37:30;46.91;39.70;56.08;;
59284;Laerm;45056;47.602;9.886;2023-09-12T08:39:58;47.14;40.80;55.91;;
59284;Laerm;45056;47.602;9.886;2023-09-12T08:42:27;49.88;41.82;63.41;;
59284;Laerm;45056;47.602;9.886;2023-09-12T08:44:55;47.84;40.43;60.53;;
59284;Laerm;45056;47.602;9.886;2023-09-12T08:47:26;47.37;40.03;57.19;;
59284;Laerm;45056;47.602;9.886;2023-09-12T08:49:56;48.76;40.80;58.63;;
59284;Laerm;45056;47.602;9.886;2023-09-12T08:52:25;47.36;40.43;59.70;;
59284;Laerm;45056;47.602;9.886;2023-09-12T08:54:53;47.04;40.80;59.34;;
59284;Laerm;45056;47.602;9.886;2023-09-12T08:57:22;48.10;40.03;66.46;;
59284;Laerm;45056;47.602;9.886;2023-09-12T08:59:52;47.43;40.33;58.44;;
59284;Laerm;45056;47.602;9.886;2023-09-12T09:02:21;50.07;41.30;60.21;;
59284;Laerm;45056;47.602;9.886;2023-09-12T09:04:50;48.40;41.14;71.00;;
59284;Laerm;45056;47.602;9.886;2023-09-12T09:07:22;47.18;42.29;58.06;;
59284;Laerm;45056;47.602;9.886;2023-09-12T09:09:50;49.85;41.68;64.44;;
59284;Laerm;45056;47.602;9.886;2023-09-12T09:12:20;49.37;41.61;67.19;;
59284;Laerm;45056;47.602;9.886;2023-09-12T09:14:48;48.08;41.82;59.40;;
59284;Laerm;45056;47.602;9.886;2023-09-12T09:17:16;54.35;42.47;67.92;;
59284;Laerm;45056;47.602;9.886;2023-09-12T09:19:44;51.58;42.71;66.68;;
59284;Laerm;45056;47.602;9.886;2023-09-12T09:22:13;51.15;41.61;66.40;;
59284;Laerm;45056;47.602;9.886;2023-09-12T09:24:42;48.01;40.98;62.79;;
59284;Laerm;45056;47.602;9.886;2023-09-12T09:27:10;51.52;40.89;67.33;;
59284;Laerm;45056;47.602;9.886;2023-09-12T09:29:48;52.89;41.46;75.01;;
59284;Laerm;45056;47.602;9.886;2023-09-12T09:32:19;48.88;40.13;64.91;;
59284;Laerm;45056;47.602;9.886;2023-09-12T09:34:48;46.23;41.06;55.46;;
59284;Laerm;45056;47.602;9.886;2023-09-12T09:37:17;47.67;42.03;59.49;;
59284;Laerm;45056;47.602;9.886;2023-09-12T09:39:48;49.52;41.46;67.04;;
59284;Laerm;45056;47.602;9.886;2023-09-12T09:42:19;51.83;40.03;68.81;;
59284;Laerm;45056;47.602;9.886;2023-09-12T09:44:48;50.02;41.46;63.41;;
59284;Laerm;45056;47.602;9.886;2023-09-12T09:47:18;46.93;41.38;59.79;;
59284;Laerm;45056;47.602;9.886;2023-09-12T09:49:46;48.83;42.65;57.39;;
59284;Laerm;45056;47.602;9.886;2023-09-12T09:52:14;50.07;42.41;64.36;;
59284;Laerm;45056;47.602;9.886;2023-09-12T09:54:44;48.64;41.46;57.68;;
59284;Laerm;45056;47.602;9.886;2023-09-12T09:57:14;46.78;41.96;55.22;;
59284;Laerm;45056;47.602;9.886;2023-09-12T09:59:49;47.31;41.22;59.98;;
59284;Laerm;45056;47.602;9.886;2023-09-12T10:02:25;50.66;42.82;59.92;;
59284;Laerm;45056;47.602;9.886;2023-09-12T10:04:54;59.28;47.91;72.88;;
59284;Laerm;45056;47.602;9.886;2023-09-12T10:07:26;51.70;41.30;69.51;;
59284;Laerm;45056;47.602;9.886;2023-09-12T10:10:00;48.72;41.75;61.13;;
59284;Laerm;45056;47.602;9.886;2023-09-12T10:12:36;48.02;40.80;59.44;;
59284;Laerm;45056;47.602;9.886;2023-09-12T10:15:09;45.83;39.92;54.92;;
59284;Laerm;45056;47.602;9.886;2023-09-12T10:17:46;47.22;41.53;56.43;;
59284;Laerm;45056;47.602;9.886;2023-09-12T10:20:21;48.04;41.89;58.47;;
59284;Laerm;45056;47.602;9.886;2023-09-12T10:23:04;46.96;40.80;57.69;;
59284;Laerm;45056;47.602;9.886;2023-09-12T10:25:36;46.43;40.62;55.77;;
59284;Laerm;45056;47.602;9.886;2023-09-12T10:28:07;46.53;41.53;55.84;;
59284;Laerm;45056;47.602;9.886;2023-09-12T10:30:36;50.21;41.53;63.12;;
59284;Laerm;45056;47.602;9.886;2023-09-12T10:33:06;53.36;42.64;65.89;;
59284;Laerm;45056;47.602;9.886;2023-09-12T10:35:38;49.07;41.14;61.56;;
59284;Laerm;45056;47.602;9.886;2023-09-12T10:38:08;47.32;41.38;58.22;;
59284;Laerm;45056;47.602;9.886;2023-09-12T10:40:38;46.80;39.92;62.27;;
59284;Laerm;45056;47.602;9.886;2023-09-12T10:43:10;46.67;41.68;56.43;;
59284;Laerm;45056;47.602;9.886;2023-09-12T10:45:40;49.01;41.06;60.32;;
59284;Laerm;45056;47.602;9.886;2023-09-12T10:48:10;47.72;41.46;57.32;;
59284;Laerm;45056;47.602;9.886;2023-09-12T10:50:40;49.85;41.14;63.96;;
59284;Laerm;45056;47.602;9.886;2023-09-12T10:53:11;47.03;40.80;58.86;;
59284;Laerm;45056;47.602;9.886;2023-09-12T10:55:41;47.34;40.71;56.49;;
59284;Laerm;45056;47.602;9.886;2023-09-12T10:58:11;49.29;42.16;65.78;;
59284;Laerm;45056;47.602;9.886;2023-09-12T11:00:39;50.23;40.62;64.53;;
59284;Laerm;45056;47.602;9.886;2023-09-12T11:03:37;50.08;41.06;63.48;;
59284;Laerm;45056;47.602;9.886;2023-09-12T11:06:21;50.67;41.46;68.27;;
59284;Laerm;45056;47.602;9.886;2023-09-12T11:09:18;50.83;42.09;67.78;;
59284;Laerm;45056;47.602;9.886;2023-09-12T11:11:56;47.40;41.68;58.01;;
59284;Laerm;45056;47.602;9.886;2023-09-12T11:14:26;47.88;41.61;64.90;;
59284;Laerm;45056;47.602;9.886;2023-09-12T11:17:23;47.23;41.53;56.10;;
59284;Laerm;45056;47.602;9.886;2023-09-12T11:19:52;47.81;40.62;58.45;;
59284;Laerm;45056;47.602;9.886;2023-09-12T11:22:24;49.09;40.98;63.18;;
59284;Laerm;45056;47.602;9.886;2023-09-12T11:24:52;47.26;41.88;56.95;;
59284;Laerm;45056;47.602;9.886;2023-09-12T11:27:23;46.96;39.58;61.26;;
59284;Laerm;45056;47.602;9.886;2023-09-12T11:29:53;46.94;40.71;58.51;;
59284;Laerm;45056;47.602;9.886;2023-09-12T11:32:32;46.67;40.71;55.21;;
59284;Laerm;45056;47.602;9.886;2023-09-12T11:35:07;47.37;41.06;61.68;;
59284;Laerm;45056;47.602;9.886;2023-09-12T11:37:35;46.02;40.53;55.35;;
59284;Laerm;45056;47.602;9.886;2023-09-12T11:40:22;46.53;40.71;61.59;;
59284;Laerm;45056;47.602;9.886;2023-09-12T11:42:50;49.74;41.89;69.11;;
59284;Laerm;45056;47.602;9.886;2023-09-12T11:45:21;47.34;41.61;57.86;;
59284;Laerm;45056;47.602;9.886;2023-09-12T11:47:50;48.15;41.46;61.32;;
59284;Laerm;45056;47.602;9.886;2023-09-12T11:50:28;49.45;41.22;61.17;;
59284;Laerm;45056;47.602;9.886;2023-09-12T11:53:06;48.98;41.82;64.84;;
59284;Laerm;45056;47.602;9.886;2023-09-12T11:55:42;46.24;40.53;55.59;;
59284;Laerm;45056;47.602;9.886;2023-09-12T11:58:13;45.51;40.53;56.03;;
59284;Laerm;45056;47.602;9.886;2023-09-12T12:00:45;46.77;39.70;58.56;;
59284;Laerm;45056;47.602;9.886;2023-09-12T12:03:14;48.14;40.89;58.82;;
59284;Laerm;45056;47.602;9.886;2023-09-12T12:05:43;47.26;41.38;55.10;;
59284;Laerm;45056;47.602;9.886;2023-09-12T12:08:11;47.38;40.62;58.15;;
59284;Laerm;45056;47.602;9.886;2023-09-12T12:10:40;48.02;40.43;62.43;;
59284;Laerm;45056;47.602;9.886;2023-09-12T12:13:11;47.76;41.30;58.71;;
59284;Laerm;45056;47.602;9.886;2023-09-12T12:15:40;47.31;40.98;55.08;;
59284;Laerm;45056;47.602;9.886;2023-09-12T12:18:09;51.09;41.96;66.43;;
59284;Laerm;45056;47.602;9.886;2023-09-12T12:20:38;47.12;41.03;54.69;;
59284;Laerm;45056;47.602;9.886;2023-09-12T12:23:06;49.91;42.88;60.25;;
59284;Laerm;45056;47.602;9.886;2023-09-12T12:25:35;51.28;43.72;65.52;;
59284;Laerm;45056;47.602;9.886;2023-09-12T12:28:04;46.47;41.38;53.45;;
59284;Laerm;45056;47.602;9.886;2023-09-12T12:30:35;47.57;42.76;60.59;;
59284;Laerm;45056;47.602;9.886;2023-09-12T12:33:09;48.56;41.68;59.74;;
59284;Laerm;45056;47.602;9.886;2023-09-12T12:35:38;50.17;41.06;61.78;;
59284;Laerm;45056;47.602;9.886;2023-09-12T12:38:06;50.92;42.22;64.44;;
59284;Laerm;45056;47.602;9.886;2023-09-12T12:40:38;47.26;42.22;58.03;;
59284;Laerm;45056;47.602;9.886;2023-09-12T12:43:16;48.02;41.75;58.57;;
59284;Laerm;45056;47.602;9.886;2023-09-12T12:45:57;47.05;41.61;56.30;;
59284;Laerm;45056;47.602;9.886;2023-09-12T12:48:35;47.89;41.89;58.16;;
59284;Laerm;45056;47.602;9.886;2023-09-12T12:51:16;52.29;41.06;69.20;;
59284;Laerm;45056;47.602;9.886;2023-09-12T12:53:47;48.39;40.53;59.97;;
59284;Laerm;45056;47.602;9.886;2023-09-12T12:56:20;51.11;40.71;64.81;;
59284;Laerm;45056;47.602;9.886;2023-09-12T12:58:50;47.21;41.38;56.03;;
59284;Laerm;45056;47.602;9.886;2023-09-12T13:01:19;48.68;42.16;58.13;;
59284;Laerm;45056;47.602;9.886;2023-09-12T13:03:49;48.57;41.82;56.48;;
59284;Laerm;45056;47.602;9.886;2023-09-12T13:06:18;52.83;42.22;67.97;;
59284;Laerm;45056;47.602;9.886;2023-09-12T13:08:48;49.43;42.35;62.25;;
59284;Laerm;45056;47.602;9.886;2023-09-12T13:11:17;52.23;41.89;70.05;;
59284;Laerm;45056;47.602;9.886;2023-09-12T13:13:48;53.94;42.47;70.36;;
59284;Laerm;45056;47.602;9.886;2023-09-12T13:16:17;47.79;42.16;58.62;;
59284;Laerm;45056;47.602;9.886;2023-09-12T13:18:45;47.52;42.03;56.56;;
59284;Laerm;45056;47.602;9.886;2023-09-12T13:21:14;47.37;40.80;58.43;;
59284;Laerm;45056;47.602;9.886;2023-09-12T13:23:42;47.67;42.53;57.11;;
59284;Laerm;45056;47.602;9.886;2023-09-12T13:26:10;51.58;42.53;66.55;;
59284;Laerm;45056;47.602;9.886;2023-09-12T13:28:39;51.59;41.88;71.40;;
59284;Laerm;45056;47.602;9.886;2023-09-12T13:31:07;49.69;40.89;61.78;;
59284;Laerm;45056;47.602;9.886;2023-09-12T13:33:35;46.99;39.58;61.86;;
59284;Laerm;45056;47.602;9.886;2023-09-12T13:36:04;48.15;42.09;64.89;;
59284;Laerm;45056;47.602;9.886;2023-09-12T13:38:33;49.24;42.09;64.99;;
59284;Laerm;45056;47.602;9.886;2023-09-12T13:41:01;56.39;40.89;75.26;;
59284;Laerm;45056;47.602;9.886;2023-09-12T13:43:30;53.20;42.71;72.37;;
59284;Laerm;45056;47.602;9.886;2023-09-12T13:45:58;53.68;42.71;70.86;;
59284;Laerm;45056;47.602;9.886;2023-09-12T13:48:26;58.20;43.24;81.29;;
59284;Laerm;45056;47.602;9.886;2023-09-12T13:50:54;55.29;41.75;76.14;;
59284;Laerm;45056;47.602;9.886;2023-09-12T13:53:22;57.35;43.09;77.91;;
59284;Laerm;45056;47.602;9.886;2023-09-12T13:55:51;57.64;42.16;78.08;;
59284;Laerm;45056;47.602;9.886;2023-09-12T13:58:19;55.18;42.41;74.15;;
59284;Laerm;45056;47.602;9.886;2023-09-12T14:00:47;59.45;43.24;78.63;;